8  °C
Temperature
5  °C
  Dewpoint
82  %
   Humidity
Temp | Dewpoint | Humidity
16  km/h
Wind Speed
10  mph
Wind Speed
9  kts
Wind Speed
100°
Due East

Wind Speed
Clear
Conditions
Pressure 1013.92 (hPa) - 29.94 (in)
Visibility 6.2 (mi) - 10.0 (km)

Current Conditions
EGGD
Location Bristol International 6km (3.2mi)
Metar :EGGD 170320Z AUTO 10009KT 9999 NCD 08/05 Q1014
Thu 1st January 01:00 am

Airport
  Metar Aviation API Data Provided by https://www.checkwx.com/ CSS/SVG/PHP scripts by weather34.com © 2015-2019